Terminal Aerodrome Forecast
Issued by NWS

Home | Current Version | Previous Version | Text Only | Print | Product List | Glossary On
Versions: 1 2 3 4 5 6 7 8 9 10 11 12 13 14 15 16
000
FTUS41 KBTV 300528
TAFRUT
TAF
KRUT 300528Z 3006/3106 13010KT P6SM SCT250
     FM301100 15010KT P6SM SCT100 BKN200
     FM301400 18010G18KT P6SM BKN080
     FM302200 18010G18KT P6SM VCSH BKN060
     FM310300 20008KT P6SM -SHRA OVC050
      AMD LTD TO CLD VIS AND WIND=

USA.gov is the U.S. government's official web portal to all federal, state and local government web resources and services.